sensor_id;sensor_type;location;lat;lon;timestamp;P1;durP1;ratioP1;P2;durP2;ratioP2
38805;SDS011;25635;51.146;17.162;2023-11-21T00:01:35;7.00;;;3.60;;
38805;SDS011;25635;51.146;17.162;2023-11-21T00:04:01;8.00;;;3.80;;
38805;SDS011;25635;51.146;17.162;2023-11-21T00:06:28;7.20;;;3.40;;
38805;SDS011;25635;51.146;17.162;2023-11-21T00:08:55;9.10;;;3.70;;
38805;SDS011;25635;51.146;17.162;2023-11-21T00:11:22;8.50;;;3.40;;
38805;SDS011;25635;51.146;17.162;2023-11-21T00:13:47;8.30;;;3.30;;
38805;SDS011;25635;51.146;17.162;2023-11-21T00:16:13;7.00;;;3.20;;
38805;SDS011;25635;51.146;17.162;2023-11-21T00:18:39;7.00;;;2.80;;
38805;SDS011;25635;51.146;17.162;2023-11-21T00:21:06;8.80;;;3.40;;
38805;SDS011;25635;51.146;17.162;2023-11-21T00:23:32;8.20;;;3.50;;
38805;SDS011;25635;51.146;17.162;2023-11-21T00:25:58;8.00;;;4.00;;
38805;SDS011;25635;51.146;17.162;2023-11-21T00:28:24;7.60;;;3.20;;
38805;SDS011;25635;51.146;17.162;2023-11-21T00:30:51;7.70;;;3.50;;
38805;SDS011;25635;51.146;17.162;2023-11-21T00:33:17;8.20;;;3.30;;
38805;SDS011;25635;51.146;17.162;2023-11-21T00:35:43;8.20;;;3.20;;
38805;SDS011;25635;51.146;17.162;2023-11-21T00:38:09;7.90;;;3.40;;
38805;SDS011;25635;51.146;17.162;2023-11-21T00:40:36;8.50;;;3.10;;
38805;SDS011;25635;51.146;17.162;2023-11-21T00:43:03;8.90;;;3.20;;
38805;SDS011;25635;51.146;17.162;2023-11-21T00:45:29;7.80;;;3.20;;
38805;SDS011;25635;51.146;17.162;2023-11-21T00:47:55;10.50;;;3.30;;
38805;SDS011;25635;51.146;17.162;2023-11-21T00:50:22;7.20;;;2.50;;
38805;SDS011;25635;51.146;17.162;2023-11-21T00:52:49;7.40;;;2.90;;
38805;SDS011;25635;51.146;17.162;2023-11-21T00:55:17;7.10;;;2.60;;
38805;SDS011;25635;51.146;17.162;2023-11-21T00:57:43;6.80;;;2.40;;
38805;SDS011;25635;51.146;17.162;2023-11-21T01:00:10;6.20;;;2.40;;
38805;SDS011;25635;51.146;17.162;2023-11-21T01:02:45;6.70;;;2.60;;
38805;SDS011;25635;51.146;17.162;2023-11-21T01:05:12;6.70;;;2.50;;
38805;SDS011;25635;51.146;17.162;2023-11-21T01:07:38;7.90;;;3.10;;
38805;SDS011;25635;51.146;17.162;2023-11-21T01:10:04;8.40;;;2.80;;
38805;SDS011;25635;51.146;17.162;2023-11-21T01:12:36;7.00;;;2.60;;
38805;SDS011;25635;51.146;17.162;2023-11-21T01:15:04;5.60;;;2.60;;
38805;SDS011;25635;51.146;17.162;2023-11-21T01:17:33;8.40;;;2.90;;
38805;SDS011;25635;51.146;17.162;2023-11-21T01:20:02;7.80;;;2.60;;
38805;SDS011;25635;51.146;17.162;2023-11-21T01:22:29;5.50;;;2.50;;
38805;SDS011;25635;51.146;17.162;2023-11-21T01:24:54;7.80;;;3.00;;
38805;SDS011;25635;51.146;17.162;2023-11-21T01:27:21;6.80;;;2.80;;
38805;SDS011;25635;51.146;17.162;2023-11-21T01:29:48;7.00;;;2.80;;
38805;SDS011;25635;51.146;17.162;2023-11-21T01:32:14;7.80;;;3.30;;
38805;SDS011;25635;51.146;17.162;2023-11-21T01:34:40;6.50;;;2.70;;
38805;SDS011;25635;51.146;17.162;2023-11-21T01:37:06;7.50;;;2.50;;
38805;SDS011;25635;51.146;17.162;2023-11-21T01:39:32;8.00;;;2.80;;
38805;SDS011;25635;51.146;17.162;2023-11-21T01:41:58;6.20;;;2.50;;
38805;SDS011;25635;51.146;17.162;2023-11-21T01:44:24;6.60;;;2.90;;
38805;SDS011;25635;51.146;17.162;2023-11-21T01:46:50;7.90;;;2.80;;
38805;SDS011;25635;51.146;17.162;2023-11-21T01:49:17;6.00;;;2.80;;
38805;SDS011;25635;51.146;17.162;2023-11-21T01:51:44;6.20;;;2.40;;
38805;SDS011;25635;51.146;17.162;2023-11-21T01:54:15;7.10;;;2.50;;
38805;SDS011;25635;51.146;17.162;2023-11-21T01:56:46;5.90;;;2.50;;
38805;SDS011;25635;51.146;17.162;2023-11-21T01:59:14;5.10;;;2.50;;
38805;SDS011;25635;51.146;17.162;2023-11-21T02:01:44;5.60;;;2.40;;
38805;SDS011;25635;51.146;17.162;2023-11-21T02:04:10;6.70;;;2.40;;
38805;SDS011;25635;51.146;17.162;2023-11-21T02:06:36;8.20;;;2.70;;
38805;SDS011;25635;51.146;17.162;2023-11-21T02:09:02;6.60;;;2.60;;
38805;SDS011;25635;51.146;17.162;2023-11-21T02:11:30;7.20;;;2.80;;
38805;SDS011;25635;51.146;17.162;2023-11-21T02:13:58;6.70;;;3.00;;
38805;SDS011;25635;51.146;17.162;2023-11-21T02:16:24;6.40;;;2.30;;
38805;SDS011;25635;51.146;17.162;2023-11-21T02:18:51;5.70;;;2.40;;
38805;SDS011;25635;51.146;17.162;2023-11-21T02:21:17;7.30;;;3.00;;
38805;SDS011;25635;51.146;17.162;2023-11-21T02:23:44;5.60;;;2.30;;
38805;SDS011;25635;51.146;17.162;2023-11-21T02:26:12;5.20;;;2.40;;
38805;SDS011;25635;51.146;17.162;2023-11-21T02:28:39;5.10;;;2.00;;
38805;SDS011;25635;51.146;17.162;2023-11-21T02:31:06;6.00;;;2.10;;
38805;SDS011;25635;51.146;17.162;2023-11-21T02:33:33;4.90;;;1.90;;
38805;SDS011;25635;51.146;17.162;2023-11-21T02:36:00;6.30;;;2.40;;
38805;SDS011;25635;51.146;17.162;2023-11-21T02:38:27;6.10;;;2.40;;
38805;SDS011;25635;51.146;17.162;2023-11-21T02:40:53;4.70;;;2.30;;
38805;SDS011;25635;51.146;17.162;2023-11-21T02:43:19;5.80;;;1.90;;
38805;SDS011;25635;51.146;17.162;2023-11-21T02:45:45;5.40;;;2.20;;
38805;SDS011;25635;51.146;17.162;2023-11-21T02:48:11;6.50;;;2.50;;
38805;SDS011;25635;51.146;17.162;2023-11-21T02:50:37;5.60;;;2.30;;
38805;SDS011;25635;51.146;17.162;2023-11-21T02:53:03;7.10;;;2.50;;
38805;SDS011;25635;51.146;17.162;2023-11-21T02:55:31;6.30;;;2.10;;
38805;SDS011;25635;51.146;17.162;2023-11-21T02:58:00;5.50;;;2.00;;
38805;SDS011;25635;51.146;17.162;2023-11-21T03:00:27;5.60;;;2.10;;
38805;SDS011;25635;51.146;17.162;2023-11-21T03:02:54;6.40;;;2.70;;
38805;SDS011;25635;51.146;17.162;2023-11-21T03:05:21;6.90;;;2.70;;
38805;SDS011;25635;51.146;17.162;2023-11-21T03:07:47;6.50;;;2.90;;
38805;SDS011;25635;51.146;17.162;2023-11-21T03:10:13;7.30;;;3.20;;
38805;SDS011;25635;51.146;17.162;2023-11-21T03:12:39;5.80;;;2.60;;
38805;SDS011;25635;51.146;17.162;2023-11-21T03:15:06;6.30;;;2.60;;
38805;SDS011;25635;51.146;17.162;2023-11-21T03:17:33;6.20;;;2.60;;
38805;SDS011;25635;51.146;17.162;2023-11-21T03:20:02;5.70;;;2.70;;
38805;SDS011;25635;51.146;17.162;2023-11-21T03:22:29;7.60;;;2.80;;
38805;SDS011;25635;51.146;17.162;2023-11-21T03:24:55;6.20;;;3.20;;
38805;SDS011;25635;51.146;17.162;2023-11-21T03:27:21;7.10;;;3.30;;
38805;SDS011;25635;51.146;17.162;2023-11-21T03:29:48;7.20;;;3.60;;
38805;SDS011;25635;51.146;17.162;2023-11-21T03:32:15;6.20;;;3.20;;
38805;SDS011;25635;51.146;17.162;2023-11-21T03:34:54;8.40;;;4.20;;
38805;SDS011;25635;51.146;17.162;2023-11-21T03:37:24;8.00;;;3.50;;
38805;SDS011;25635;51.146;17.162;2023-11-21T03:39:50;9.20;;;3.80;;
38805;SDS011;25635;51.146;17.162;2023-11-21T03:42:16;9.30;;;3.80;;
38805;SDS011;25635;51.146;17.162;2023-11-21T03:44:43;7.30;;;3.90;;
38805;SDS011;25635;51.146;17.162;2023-11-21T03:47:09;8.10;;;4.20;;
38805;SDS011;25635;51.146;17.162;2023-11-21T03:49:35;7.80;;;3.80;;
38805;SDS011;25635;51.146;17.162;2023-11-21T03:52:01;8.90;;;4.20;;
38805;SDS011;25635;51.146;17.162;2023-11-21T03:54:28;8.30;;;4.40;;
38805;SDS011;25635;51.146;17.162;2023-11-21T03:56:54;8.20;;;4.30;;
38805;SDS011;25635;51.146;17.162;2023-11-21T03:59:19;8.80;;;4.40;;
38805;SDS011;25635;51.146;17.162;2023-11-21T04:01:46;8.00;;;4.10;;
38805;SDS011;25635;51.146;17.162;2023-11-21T04:04:12;8.90;;;4.30;;
38805;SDS011;25635;51.146;17.162;2023-11-21T04:06:38;8.90;;;4.30;;
38805;SDS011;25635;51.146;17.162;2023-11-21T04:09:04;9.50;;;4.30;;
38805;SDS011;25635;51.146;17.162;2023-11-21T04:11:30;8.30;;;4.10;;
38805;SDS011;25635;51.146;17.162;2023-11-21T04:13:56;7.70;;;4.20;;
38805;SDS011;25635;51.146;17.162;2023-11-21T04:16:22;7.90;;;3.60;;
38805;SDS011;25635;51.146;17.162;2023-11-21T04:18:48;5.80;;;3.70;;
38805;SDS011;25635;51.146;17.162;2023-11-21T04:21:15;7.60;;;3.70;;
38805;SDS011;25635;51.146;17.162;2023-11-21T04:23:41;9.90;;;4.00;;
38805;SDS011;25635;51.146;17.162;2023-11-21T04:26:08;7.30;;;3.70;;
38805;SDS011;25635;51.146;17.162;2023-11-21T04:28:34;7.80;;;3.80;;
38805;SDS011;25635;51.146;17.162;2023-11-21T04:31:00;8.30;;;3.80;;
38805;SDS011;25635;51.146;17.162;2023-11-21T04:33:26;7.80;;;4.20;;
38805;SDS011;25635;51.146;17.162;2023-11-21T04:35:52;8.50;;;3.60;;
38805;SDS011;25635;51.146;17.162;2023-11-21T04:38:18;7.20;;;3.50;;
38805;SDS011;25635;51.146;17.162;2023-11-21T04:40:45;6.50;;;3.40;;
38805;SDS011;25635;51.146;17.162;2023-11-21T04:43:11;5.70;;;3.20;;
38805;SDS011;25635;51.146;17.162;2023-11-21T04:45:37;5.40;;;2.90;;
38805;SDS011;25635;51.146;17.162;2023-11-21T04:48:04;6.40;;;3.20;;
38805;SDS011;25635;51.146;17.162;2023-11-21T04:50:31;7.30;;;3.20;;
38805;SDS011;25635;51.146;17.162;2023-11-21T04:52:57;6.40;;;3.30;;
38805;SDS011;25635;51.146;17.162;2023-11-21T04:55:23;6.90;;;3.30;;
38805;SDS011;25635;51.146;17.162;2023-11-21T04:57:49;7.80;;;3.00;;
38805;SDS011;25635;51.146;17.162;2023-11-21T05:00:15;7.10;;;2.90;;
38805;SDS011;25635;51.146;17.162;2023-11-21T05:02:41;7.50;;;3.30;;
38805;SDS011;25635;51.146;17.162;2023-11-21T05:05:07;7.00;;;2.90;;
38805;SDS011;25635;51.146;17.162;2023-11-21T05:07:36;5.90;;;2.40;;
38805;SDS011;25635;51.146;17.162;2023-11-21T05:10:02;5.60;;;2.50;;
38805;SDS011;25635;51.146;17.162;2023-11-21T05:12:33;5.90;;;2.80;;
38805;SDS011;25635;51.146;17.162;2023-11-21T05:15:05;5.00;;;2.20;;
38805;SDS011;25635;51.146;17.162;2023-11-21T05:17:39;5.60;;;2.00;;
38805;SDS011;25635;51.146;17.162;2023-11-21T05:20:09;5.30;;;2.20;;
38805;SDS011;25635;51.146;17.162;2023-11-21T05:22:40;6.70;;;2.60;;
38805;SDS011;25635;51.146;17.162;2023-11-21T05:25:07;5.10;;;2.10;;
38805;SDS011;25635;51.146;17.162;2023-11-21T05:27:34;4.60;;;2.10;;
38805;SDS011;25635;51.146;17.162;2023-11-21T05:30:01;7.50;;;2.30;;
38805;SDS011;25635;51.146;17.162;2023-11-21T05:32:31;5.20;;;2.40;;
38805;SDS011;25635;51.146;17.162;2023-11-21T05:34:57;5.30;;;2.70;;
38805;SDS011;25635;51.146;17.162;2023-11-21T05:37:24;7.90;;;2.70;;
38805;SDS011;25635;51.146;17.162;2023-11-21T05:39:55;5.40;;;2.60;;
38805;SDS011;25635;51.146;17.162;2023-11-21T05:42:22;6.40;;;3.00;;
38805;SDS011;25635;51.146;17.162;2023-11-21T05:44:49;5.30;;;2.90;;
38805;SDS011;25635;51.146;17.162;2023-11-21T05:47:14;6.30;;;2.90;;
38805;SDS011;25635;51.146;17.162;2023-11-21T05:49:41;7.70;;;2.70;;
38805;SDS011;25635;51.146;17.162;2023-11-21T05:52:07;7.00;;;3.00;;
38805;SDS011;25635;51.146;17.162;2023-11-21T05:54:33;6.00;;;3.00;;
38805;SDS011;25635;51.146;17.162;2023-11-21T05:56:59;7.50;;;3.30;;
38805;SDS011;25635;51.146;17.162;2023-11-21T05:59:26;8.30;;;3.50;;
38805;SDS011;25635;51.146;17.162;2023-11-21T06:01:52;5.40;;;3.10;;
38805;SDS011;25635;51.146;17.162;2023-11-21T06:04:19;6.50;;;3.20;;
38805;SDS011;25635;51.146;17.162;2023-11-21T06:06:50;6.10;;;3.10;;
38805;SDS011;25635;51.146;17.162;2023-11-21T06:09:18;5.10;;;2.70;;
38805;SDS011;25635;51.146;17.162;2023-11-21T06:11:44;5.40;;;2.90;;
38805;SDS011;25635;51.146;17.162;2023-11-21T06:14:10;6.10;;;3.50;;
38805;SDS011;25635;51.146;17.162;2023-11-21T06:16:36;6.00;;;2.60;;
38805;SDS011;25635;51.146;17.162;2023-11-21T06:19:02;5.50;;;3.20;;
38805;SDS011;25635;51.146;17.162;2023-11-21T06:21:28;9.20;;;4.20;;
38805;SDS011;25635;51.146;17.162;2023-11-21T06:23:54;8.10;;;5.00;;
38805;SDS011;25635;51.146;17.162;2023-11-21T06:26:22;6.50;;;3.30;;
38805;SDS011;25635;51.146;17.162;2023-11-21T06:28:49;6.70;;;3.60;;
38805;SDS011;25635;51.146;17.162;2023-11-21T06:31:17;7.00;;;3.40;;
38805;SDS011;25635;51.146;17.162;2023-11-21T06:33:43;7.20;;;4.30;;
38805;SDS011;25635;51.146;17.162;2023-11-21T06:36:09;6.50;;;3.50;;
38805;SDS011;25635;51.146;17.162;2023-11-21T06:38:37;6.70;;;3.50;;
38805;SDS011;25635;51.146;17.162;2023-11-21T06:41:03;7.70;;;3.80;;
38805;SDS011;25635;51.146;17.162;2023-11-21T06:43:30;6.60;;;3.80;;
38805;SDS011;25635;51.146;17.162;2023-11-21T06:45:58;7.60;;;4.20;;
38805;SDS011;25635;51.146;17.162;2023-11-21T06:48:25;7.40;;;4.00;;
38805;SDS011;25635;51.146;17.162;2023-11-21T06:50:51;6.90;;;4.20;;
38805;SDS011;25635;51.146;17.162;2023-11-21T06:53:17;8.30;;;4.30;;
38805;SDS011;25635;51.146;17.162;2023-11-21T06:55:44;8.20;;;3.90;;
38805;SDS011;25635;51.146;17.162;2023-11-21T06:58:10;9.00;;;4.30;;
38805;SDS011;25635;51.146;17.162;2023-11-21T07:00:36;7.60;;;3.70;;
38805;SDS011;25635;51.146;17.162;2023-11-21T07:03:02;6.60;;;3.40;;
38805;SDS011;25635;51.146;17.162;2023-11-21T07:05:28;8.20;;;3.80;;
38805;SDS011;25635;51.146;17.162;2023-11-21T07:07:55;6.60;;;3.70;;
38805;SDS011;25635;51.146;17.162;2023-11-21T07:10:21;8.10;;;4.80;;
38805;SDS011;25635;51.146;17.162;2023-11-21T07:12:47;8.90;;;4.60;;
38805;SDS011;25635;51.146;17.162;2023-11-21T07:15:14;8.20;;;4.20;;
38805;SDS011;25635;51.146;17.162;2023-11-21T07:17:40;6.90;;;3.90;;
38805;SDS011;25635;51.146;17.162;2023-11-21T07:20:07;7.80;;;3.70;;
38805;SDS011;25635;51.146;17.162;2023-11-21T07:22:34;7.00;;;3.60;;
38805;SDS011;25635;51.146;17.162;2023-11-21T07:25:00;7.80;;;3.70;;
38805;SDS011;25635;51.146;17.162;2023-11-21T07:27:26;6.80;;;3.60;;
38805;SDS011;25635;51.146;17.162;2023-11-21T07:29:52;7.70;;;4.00;;
38805;SDS011;25635;51.146;17.162;2023-11-21T07:32:18;7.40;;;3.50;;
38805;SDS011;25635;51.146;17.162;2023-11-21T07:34:44;8.10;;;3.90;;
38805;SDS011;25635;51.146;17.162;2023-11-21T07:37:11;8.20;;;3.40;;
38805;SDS011;25635;51.146;17.162;2023-11-21T07:39:37;7.40;;;3.80;;
38805;SDS011;25635;51.146;17.162;2023-11-21T07:42:03;7.70;;;4.20;;
38805;SDS011;25635;51.146;17.162;2023-11-21T07:44:32;7.30;;;4.30;;
38805;SDS011;25635;51.146;17.162;2023-11-21T07:46:58;8.90;;;4.60;;
38805;SDS011;25635;51.146;17.162;2023-11-21T07:49:25;6.90;;;3.60;;
38805;SDS011;25635;51.146;17.162;2023-11-21T07:51:52;9.90;;;4.30;;
38805;SDS011;25635;51.146;17.162;2023-11-21T07:54:18;8.20;;;4.10;;
38805;SDS011;25635;51.146;17.162;2023-11-21T07:56:45;8.40;;;4.30;;
38805;SDS011;25635;51.146;17.162;2023-11-21T07:59:11;8.20;;;4.10;;
38805;SDS011;25635;51.146;17.162;2023-11-21T08:01:38;7.70;;;4.20;;
38805;SDS011;25635;51.146;17.162;2023-11-21T08:04:06;6.60;;;3.80;;
38805;SDS011;25635;51.146;17.162;2023-11-21T08:06:32;7.20;;;4.30;;
38805;SDS011;25635;51.146;17.162;2023-11-21T08:08:59;7.00;;;3.80;;
38805;SDS011;25635;51.146;17.162;2023-11-21T08:11:25;7.60;;;4.00;;
38805;SDS011;25635;51.146;17.162;2023-11-21T08:13:57;6.80;;;3.40;;
38805;SDS011;25635;51.146;17.162;2023-11-21T08:16:24;6.90;;;3.70;;
38805;SDS011;25635;51.146;17.162;2023-11-21T08:18:51;8.30;;;4.10;;
38805;SDS011;25635;51.146;17.162;2023-11-21T08:21:17;8.20;;;4.10;;
38805;SDS011;25635;51.146;17.162;2023-11-21T08:23:44;7.00;;;3.80;;
38805;SDS011;25635;51.146;17.162;2023-11-21T08:26:10;8.10;;;4.10;;
38805;SDS011;25635;51.146;17.162;2023-11-21T08:28:37;10.40;;;5.10;;
38805;SDS011;25635;51.146;17.162;2023-11-21T08:31:03;7.90;;;4.40;;
38805;SDS011;25635;51.146;17.162;2023-11-21T08:33:30;9.10;;;5.00;;
38805;SDS011;25635;51.146;17.162;2023-11-21T08:35:56;7.50;;;4.50;;
38805;SDS011;25635;51.146;17.162;2023-11-21T08:38:22;9.10;;;4.80;;
38805;SDS011;25635;51.146;17.162;2023-11-21T08:40:48;7.80;;;4.00;;
38805;SDS011;25635;51.146;17.162;2023-11-21T08:43:15;8.50;;;4.50;;
38805;SDS011;25635;51.146;17.162;2023-11-21T08:45:42;8.20;;;4.10;;
38805;SDS011;25635;51.146;17.162;2023-11-21T08:48:08;10.00;;;5.50;;
38805;SDS011;25635;51.146;17.162;2023-11-21T08:50:34;10.40;;;5.50;;
38805;SDS011;25635;51.146;17.162;2023-11-21T08:53:00;7.50;;;4.60;;
38805;SDS011;25635;51.146;17.162;2023-11-21T08:55:27;7.70;;;4.40;;
38805;SDS011;25635;51.146;17.162;2023-11-21T08:57:54;9.00;;;4.60;;
38805;SDS011;25635;51.146;17.162;2023-11-21T09:00:20;7.60;;;4.10;;
38805;SDS011;25635;51.146;17.162;2023-11-21T09:02:47;8.20;;;4.00;;
38805;SDS011;25635;51.146;17.162;2023-11-21T09:05:14;7.80;;;3.80;;
38805;SDS011;25635;51.146;17.162;2023-11-21T09:07:41;8.80;;;3.50;;
38805;SDS011;25635;51.146;17.162;2023-11-21T09:10:08;7.40;;;3.70;;
38805;SDS011;25635;51.146;17.162;2023-11-21T09:12:35;7.50;;;3.90;;
38805;SDS011;25635;51.146;17.162;2023-11-21T09:15:03;7.50;;;4.00;;
38805;SDS011;25635;51.146;17.162;2023-11-21T09:17:33;7.10;;;3.80;;
38805;SDS011;25635;51.146;17.162;2023-11-21T09:20:00;7.00;;;3.90;;
38805;SDS011;25635;51.146;17.162;2023-11-21T09:22:26;7.30;;;3.40;;
38805;SDS011;25635;51.146;17.162;2023-11-21T09:24:55;7.30;;;3.80;;
38805;SDS011;25635;51.146;17.162;2023-11-21T09:27:23;6.50;;;3.80;;
38805;SDS011;25635;51.146;17.162;2023-11-21T09:29:51;8.90;;;4.50;;
38805;SDS011;25635;51.146;17.162;2023-11-21T09:32:18;7.40;;;3.80;;
38805;SDS011;25635;51.146;17.162;2023-11-21T09:34:48;7.10;;;3.80;;
38805;SDS011;25635;51.146;17.162;2023-11-21T09:37:14;6.80;;;3.60;;
38805;SDS011;25635;51.146;17.162;2023-11-21T09:39:40;7.30;;;3.70;;
38805;SDS011;25635;51.146;17.162;2023-11-21T09:42:10;6.50;;;3.30;;
38805;SDS011;25635;51.146;17.162;2023-11-21T09:45:00;8.20;;;3.70;;
38805;SDS011;25635;51.146;17.162;2023-11-21T09:47:32;5.90;;;3.50;;
38805;SDS011;25635;51.146;17.162;2023-11-21T09:50:04;6.80;;;3.50;;
38805;SDS011;25635;51.146;17.162;2023-11-21T09:52:36;7.50;;;3.50;;
38805;SDS011;25635;51.146;17.162;2023-11-21T09:55:13;6.20;;;3.20;;
38805;SDS011;25635;51.146;17.162;2023-11-21T09:57:44;8.60;;;4.30;;
38805;SDS011;25635;51.146;17.162;2023-11-21T10:00:11;8.90;;;5.30;;
38805;SDS011;25635;51.146;17.162;2023-11-21T10:02:38;10.20;;;7.10;;
38805;SDS011;25635;51.146;17.162;2023-11-21T10:05:06;12.50;;;7.50;;
38805;SDS011;25635;51.146;17.162;2023-11-21T10:07:35;13.40;;;8.50;;
38805;SDS011;25635;51.146;17.162;2023-11-21T10:10:02;13.40;;;8.30;;
38805;SDS011;25635;51.146;17.162;2023-11-21T10:12:28;14.70;;;8.00;;
38805;SDS011;25635;51.146;17.162;2023-11-21T10:14:57;18.00;;;11.90;;
38805;SDS011;25635;51.146;17.162;2023-11-21T10:17:26;19.00;;;12.80;;
38805;SDS011;25635;51.146;17.162;2023-11-21T10:19:57;19.30;;;13.40;;
38805;SDS011;25635;51.146;17.162;2023-11-21T10:22:24;19.90;;;13.20;;
38805;SDS011;25635;51.146;17.162;2023-11-21T10:24:50;20.30;;;12.60;;
38805;SDS011;25635;51.146;17.162;2023-11-21T10:27:17;19.10;;;12.50;;
38805;SDS011;25635;51.146;17.162;2023-11-21T10:29:43;20.40;;;12.40;;
38805;SDS011;25635;51.146;17.162;2023-11-21T10:32:09;18.60;;;12.00;;
38805;SDS011;25635;51.146;17.162;2023-11-21T10:34:37;19.20;;;13.00;;
38805;SDS011;25635;51.146;17.162;2023-11-21T10:37:13;19.70;;;13.50;;
38805;SDS011;25635;51.146;17.162;2023-11-21T10:39:39;18.30;;;12.20;;
38805;SDS011;25635;51.146;17.162;2023-11-21T10:42:08;19.20;;;11.70;;
38805;SDS011;25635;51.146;17.162;2023-11-21T10:44:58;18.80;;;12.60;;
38805;SDS011;25635;51.146;17.162;2023-11-21T10:47:24;20.60;;;13.80;;
38805;SDS011;25635;51.146;17.162;2023-11-21T10:49:51;17.40;;;11.90;;
38805;SDS011;25635;51.146;17.162;2023-11-21T10:52:19;18.60;;;12.00;;
38805;SDS011;25635;51.146;17.162;2023-11-21T10:54:45;19.00;;;12.80;;
38805;SDS011;25635;51.146;17.162;2023-11-21T10:57:12;21.80;;;13.80;;
38805;SDS011;25635;51.146;17.162;2023-11-21T10:59:41;22.10;;;13.50;;
38805;SDS011;25635;51.146;17.162;2023-11-21T11:02:25;21.40;;;13.20;;
38805;SDS011;25635;51.146;17.162;2023-11-21T11:04:54;21.00;;;12.80;;
38805;SDS011;25635;51.146;17.162;2023-11-21T11:07:26;21.70;;;13.20;;
38805;SDS011;25635;51.146;17.162;2023-11-21T11:09:53;21.20;;;13.10;;
38805;SDS011;25635;51.146;17.162;2023-11-21T11:12:20;22.50;;;14.80;;
38805;SDS011;25635;51.146;17.162;2023-11-21T11:14:48;25.20;;;16.00;;
38805;SDS011;25635;51.146;17.162;2023-11-21T11:17:14;24.80;;;15.40;;
38805;SDS011;25635;51.146;17.162;2023-11-21T11:19:42;25.90;;;16.30;;
38805;SDS011;25635;51.146;17.162;2023-11-21T11:27:39;25.20;;;16.10;;
38805;SDS011;25635;51.146;17.162;2023-11-21T11:30:38;26.40;;;16.00;;
38805;SDS011;25635;51.146;17.162;2023-11-21T11:38:33;25.00;;;15.50;;
38805;SDS011;25635;51.146;17.162;2023-11-21T11:41:04;23.70;;;15.60;;
38805;SDS011;25635;51.146;17.162;2023-11-21T11:43:32;23.10;;;15.00;;
38805;SDS011;25635;51.146;17.162;2023-11-21T11:46:03;21.70;;;15.20;;
38805;SDS011;25635;51.146;17.162;2023-11-21T11:48:29;22.20;;;15.20;;
38805;SDS011;25635;51.146;17.162;2023-11-21T11:51:05;21.00;;;14.10;;
38805;SDS011;25635;51.146;17.162;2023-11-21T11:53:36;22.20;;;14.60;;
38805;SDS011;25635;51.146;17.162;2023-11-21T11:58:55;21.70;;;14.10;;
38805;SDS011;25635;51.146;17.162;2023-11-21T12:01:22;21.90;;;14.30;;
38805;SDS011;25635;51.146;17.162;2023-11-21T12:07:00;20.60;;;13.40;;
38805;SDS011;25635;51.146;17.162;2023-11-21T12:09:29;19.00;;;12.50;;
38805;SDS011;25635;51.146;17.162;2023-11-21T12:11:57;18.60;;;12.40;;
38805;SDS011;25635;51.146;17.162;2023-11-21T12:14:23;16.00;;;11.60;;
38805;SDS011;25635;51.146;17.162;2023-11-21T12:16:50;16.80;;;11.40;;
38805;SDS011;25635;51.146;17.162;2023-11-21T12:19:17;16.10;;;11.10;;
38805;SDS011;25635;51.146;17.162;2023-11-21T12:21:44;15.70;;;9.50;;
38805;SDS011;25635;51.146;17.162;2023-11-21T12:24:10;13.70;;;9.20;;
38805;SDS011;25635;51.146;17.162;2023-11-21T12:26:42;14.80;;;9.20;;
38805;SDS011;25635;51.146;17.162;2023-11-21T12:29:09;15.60;;;9.20;;
38805;SDS011;25635;51.146;17.162;2023-11-21T12:31:36;13.40;;;9.10;;
38805;SDS011;25635;51.146;17.162;2023-11-21T12:34:02;15.40;;;10.20;;
38805;SDS011;25635;51.146;17.162;2023-11-21T12:36:30;13.40;;;9.00;;
38805;SDS011;25635;51.146;17.162;2023-11-21T12:38:56;12.60;;;8.30;;
38805;SDS011;25635;51.146;17.162;2023-11-21T12:41:22;13.40;;;8.30;;
38805;SDS011;25635;51.146;17.162;2023-11-21T12:43:48;14.50;;;8.30;;
38805;SDS011;25635;51.146;17.162;2023-11-21T12:46:15;12.80;;;8.40;;
38805;SDS011;25635;51.146;17.162;2023-11-21T12:48:42;11.50;;;7.40;;
38805;SDS011;25635;51.146;17.162;2023-11-21T12:51:11;12.20;;;7.50;;
38805;SDS011;25635;51.146;17.162;2023-11-21T12:53:40;11.80;;;7.30;;
38805;SDS011;25635;51.146;17.162;2023-11-21T12:56:09;11.50;;;7.30;;
38805;SDS011;25635;51.146;17.162;2023-11-21T12:58:38;15.20;;;7.80;;
38805;SDS011;25635;51.146;17.162;2023-11-21T13:01:06;11.60;;;6.80;;
38805;SDS011;25635;51.146;17.162;2023-11-21T13:03:37;10.80;;;6.80;;
38805;SDS011;25635;51.146;17.162;2023-11-21T13:06:05;11.10;;;7.00;;
38805;SDS011;25635;51.146;17.162;2023-11-21T13:08:33;11.70;;;7.20;;
38805;SDS011;25635;51.146;17.162;2023-11-21T13:10:59;11.40;;;7.30;;
38805;SDS011;25635;51.146;17.162;2023-11-21T13:13:29;12.20;;;8.30;;
38805;SDS011;25635;51.146;17.162;2023-11-21T13:15:56;12.90;;;8.50;;
38805;SDS011;25635;51.146;17.162;2023-11-21T13:18:30;13.20;;;9.10;;
38805;SDS011;25635;51.146;17.162;2023-11-21T13:21:02;14.00;;;10.00;;
38805;SDS011;25635;51.146;17.162;2023-11-21T13:23:40;15.70;;;10.40;;
38805;SDS011;25635;51.146;17.162;2023-11-21T13:26:07;13.40;;;9.70;;
38805;SDS011;25635;51.146;17.162;2023-11-21T13:28:35;13.80;;;9.60;;
38805;SDS011;25635;51.146;17.162;2023-11-21T13:31:03;12.70;;;9.00;;
38805;SDS011;25635;51.146;17.162;2023-11-21T13:33:49;14.00;;;8.80;;
38805;SDS011;25635;51.146;17.162;2023-11-21T13:36:34;13.10;;;9.10;;
38805;SDS011;25635;51.146;17.162;2023-11-21T13:39:01;11.10;;;8.20;;
38805;SDS011;25635;51.146;17.162;2023-11-21T13:41:33;11.30;;;8.00;;
38805;SDS011;25635;51.146;17.162;2023-11-21T13:43:59;13.00;;;9.50;;
38805;SDS011;25635;51.146;17.162;2023-11-21T13:46:42;12.60;;;8.40;;
38805;SDS011;25635;51.146;17.162;2023-11-21T13:49:08;14.60;;;10.20;;
38805;SDS011;25635;51.146;17.162;2023-11-21T13:51:36;13.00;;;8.90;;
38805;SDS011;25635;51.146;17.162;2023-11-21T13:54:15;11.30;;;8.40;;
38805;SDS011;25635;51.146;17.162;2023-11-21T13:56:41;10.80;;;7.50;;
38805;SDS011;25635;51.146;17.162;2023-11-21T13:59:10;11.80;;;7.90;;
38805;SDS011;25635;51.146;17.162;2023-11-21T14:01:54;11.20;;;8.00;;
38805;SDS011;25635;51.146;17.162;2023-11-21T14:04:38;11.70;;;8.80;;
38805;SDS011;25635;51.146;17.162;2023-11-21T14:07:19;12.10;;;7.80;;
38805;SDS011;25635;51.146;17.162;2023-11-21T14:09:51;11.60;;;8.00;;
38805;SDS011;25635;51.146;17.162;2023-11-21T14:12:18;12.80;;;9.00;;
38805;SDS011;25635;51.146;17.162;2023-11-21T14:14:44;12.70;;;8.90;;
38805;SDS011;25635;51.146;17.162;2023-11-21T14:17:11;13.20;;;9.40;;
38805;SDS011;25635;51.146;17.162;2023-11-21T14:19:39;11.80;;;8.50;;
38805;SDS011;25635;51.146;17.162;2023-11-21T14:22:11;11.30;;;7.70;;
38805;SDS011;25635;51.146;17.162;2023-11-21T14:24:39;12.60;;;8.30;;
38805;SDS011;25635;51.146;17.162;2023-11-21T14:27:12;11.70;;;9.10;;
38805;SDS011;25635;51.146;17.162;2023-11-21T14:29:40;13.10;;;9.00;;
38805;SDS011;25635;51.146;17.162;2023-11-21T14:32:10;13.00;;;9.00;;
38805;SDS011;25635;51.146;17.162;2023-11-21T14:34:36;13.40;;;9.30;;
38805;SDS011;25635;51.146;17.162;2023-11-21T14:37:04;12.30;;;8.90;;
38805;SDS011;25635;51.146;17.162;2023-11-21T14:39:30;13.10;;;8.80;;
38805;SDS011;25635;51.146;17.162;2023-11-21T14:42:00;11.70;;;7.50;;
38805;SDS011;25635;51.146;17.162;2023-11-21T14:44:28;11.10;;;6.80;;
38805;SDS011;25635;51.146;17.162;2023-11-21T14:46:58;9.50;;;7.00;;
38805;SDS011;25635;51.146;17.162;2023-11-21T14:49:26;11.70;;;7.80;;